Budennovsk, Russia
Current Conditions -  °F | °C
As of 7:00 AM on Sunday 26 Oct 2014 (Local Time) from URMM Reporting Station
Overcast Overcast  
Wind Chill:   Ceiling: 1800
Heat Index: 19°   Visibility: 6mi
Dew Point: 18°   Wind: 16mph
Humidity: 93%   Direction: 100°E
Pressure: 30.5"   Gusts: NA
Location:  44.76°N, 44.1°E
Report Text: URMM 260400Z 10007MPS 9999 OVC018 M07/M08 Q1033 R12/690332NOSIG RMK MT OBSC QFE746/0995
Loading
Personal Weather Stations






























Interactive Weather Map
Tropical Storm Tracking
New forecast layout! Learn more

10-Day Weather Forecast

Advertisements
Track Severe Weather on mobile